ASN logo
Accident
Last updated: 15 December 2017
Statuts:Enquête Préliminaire
Date:jeudi 13 octobre 2016
Heure:21:40
Type/Sous-type:Silhouette image of generic C500 model; specific model in this crash may look slightly different
Cessna 500 Citation I
Compagnie:Norjet
Immatriculation: C-GTNG
Numéro de série: 500-0169
Année de Fabrication: 1974
Moteurs: 2 Pratt & Whitney Canada JT15D-1A
Equipage:victimes: 1 / à bord: 1
Passagers:victimes: 3 / à bord: 3
Total:victimes: 4 / à bord: 4
Dégats de l'appareil: Détruit
Conséquences: Written off (damaged beyond repair)
Lieu de l'accident:11 km (6.9 milles) N of Kelowna Airport, BC (YLW) (   Canada)
Phase de vol: En montée initiale (ICL)
Nature:Inconnu
Aéroport de départ:Kelowna Airport, BC (YLW/CYLW), Canada
Aéroport de destination:Calgary/Springbank Airport, AB (CYBW), Canada
Détails:
A Cessna 500 Citation I jet has impacted terrain shortly after takeoff from Kelowna Airport, Canada. All four occupants died in the crash.
About 21:32 the aircraft took off from runway 34 and turned to a north-northeasterly heading until radar contact was lost while the aircraft was climbing through 8600 feet.
The last data point recorded by flight tracking website Flightaware.com shows the aircraft at 4800 feet, descending at a rate of -2200 ft /min to the east of Winfield, BC. The air?craft was destroyed from high deceleration forces after a vertical descent.

Accident investigation:
Investigating agency: TSB Canada
Status: Investigation ongoing
Accident number: A16P0186

Sources:
» CBC
» Flightaware.com
» Cadors Number: 2016P1852
» TSB

METAR Weather report:
04:16 UTC / 21:16 local time:
CYLW 140416Z AUTO 35006KT 9SM -RA SCT006 07/06 A2947 RMK SLP992

04:33 UTC / 21:33 local time:
CYLW 140433Z AUTO 01006KT 9SM -RA SCT006 BKN020 07/06 A2946 RMK PRESFR SLP985

04:35 UTC / 21:35 local time:
CYLW 140435Z AUTO 01005KT 9SM -RA BKN006 BKN020 07/06 A2945 RMK PRESFR SLP983
Wind 010 at 5 knots; visibility 9 miles in rain; broken clouds at 600 feet, broken clouds at 2000 feet, temperature +7°C; dew point +6°C;

04:37 UTC / 21:37 local time:
CYLW 140437Z AUTO 01006KT 9SM -RA BKN008 BKN020 07/06 A2945 RMK PRESFR SLP983


Photos

photo of Cessna 500 Citation I C-GTNG
Overview of wreckage showing the starboard engine nacelle
photo of Cessna 500 Citation I C-GTNG
Overview of wreckage showing landing gear
photo of Cessna 500 Citation I C-GTNG
Overview of wreckage showing fuselage and one of the wings
photo of Cessna 500 Citation I C-GTNG
Overview of wreckage showing fuselage and one of the wings
photo of Cessna 500 Citation I C-GTNG
Photo taken just hours before departure on accident flight
Add your photo of this accident or aircraft
 

Plan
Ce plan montre l'aéroport de départ ainsi que la supposée destination du vol. La ligne fixe reliant les deux aéroports n'est pas le plan de vol exact.
La distance entre Kelowna Airport, BC et Calgary/Springbank Airport, AB est de 373 km (233 miles).
Accident location: Approximate; accuracy within a few kilometers.

Les informations ci-dessus ne représentent pas l'opinion de la 'Flight Safety Foundation' ou de 'Aviation Safety Network' sur les causes de l'accident. Ces informations prélimimaires sont basées sur les faits tel qu'ils sont connus à ce jour.
languages: languages

Share